sensor_id;sensor_type;location;lat;lon;timestamp;P1;durP1;ratioP1;P2;durP2;ratioP2
20729;SDS011;10526;50.850;12.928;2023-05-16T00:01:38;20.23;;;12.70;;
20729;SDS011;10526;50.850;12.928;2023-05-16T00:06:00;19.77;;;12.32;;
20729;SDS011;10526;50.850;12.928;2023-05-16T00:10:22;18.20;;;10.93;;
20729;SDS011;10526;50.850;12.928;2023-05-16T00:14:45;17.27;;;10.60;;
20729;SDS011;10526;50.850;12.928;2023-05-16T00:19:08;16.60;;;10.70;;
20729;SDS011;10526;50.850;12.928;2023-05-16T00:23:33;17.95;;;11.05;;
20729;SDS011;10526;50.850;12.928;2023-05-16T00:27:55;19.98;;;11.70;;
20729;SDS011;10526;50.850;12.928;2023-05-16T00:32:17;18.38;;;11.50;;
20729;SDS011;10526;50.850;12.928;2023-05-16T00:36:39;17.90;;;11.40;;
20729;SDS011;10526;50.850;12.928;2023-05-16T00:41:01;21.23;;;13.57;;
20729;SDS011;10526;50.850;12.928;2023-05-16T00:45:24;21.02;;;13.15;;
20729;SDS011;10526;50.850;12.928;2023-05-16T00:49:46;19.38;;;13.27;;
20729;SDS011;10526;50.850;12.928;2023-05-16T00:54:09;21.08;;;14.77;;
20729;SDS011;10526;50.850;12.928;2023-05-16T00:58:33;22.58;;;14.45;;
20729;SDS011;10526;50.850;12.928;2023-05-16T01:02:55;20.08;;;13.70;;
20729;SDS011;10526;50.850;12.928;2023-05-16T01:07:17;22.67;;;15.15;;
20729;SDS011;10526;50.850;12.928;2023-05-16T01:11:51;20.55;;;14.50;;
20729;SDS011;10526;50.850;12.928;2023-05-16T01:21:49;25.27;;;16.63;;
20729;SDS011;10526;50.850;12.928;2023-05-16T01:26:29;21.00;;;14.68;;
20729;SDS011;10526;50.850;12.928;2023-05-16T01:30:53;25.58;;;16.88;;
20729;SDS011;10526;50.850;12.928;2023-05-16T01:35:16;24.33;;;17.05;;
20729;SDS011;10526;50.850;12.928;2023-05-16T01:44:19;24.58;;;17.60;;
20729;SDS011;10526;50.850;12.928;2023-05-16T01:48:53;25.25;;;19.00;;
20729;SDS011;10526;50.850;12.928;2023-05-16T01:53:37;25.33;;;17.83;;
20729;SDS011;10526;50.850;12.928;2023-05-16T01:58:00;26.25;;;19.08;;
20729;SDS011;10526;50.850;12.928;2023-05-16T02:02:24;27.38;;;19.13;;
20729;SDS011;10526;50.850;12.928;2023-05-16T02:06:47;25.25;;;18.02;;
20729;SDS011;10526;50.850;12.928;2023-05-16T02:11:09;26.92;;;19.77;;
20729;SDS011;10526;50.850;12.928;2023-05-16T02:15:31;28.00;;;18.13;;
20729;SDS011;10526;50.850;12.928;2023-05-16T02:19:53;25.67;;;17.58;;
20729;SDS011;10526;50.850;12.928;2023-05-16T02:24:15;26.38;;;17.17;;
20729;SDS011;10526;50.850;12.928;2023-05-16T02:28:38;26.00;;;16.38;;
20729;SDS011;10526;50.850;12.928;2023-05-16T02:33:00;21.02;;;13.95;;
20729;SDS011;10526;50.850;12.928;2023-05-16T02:37:23;19.65;;;13.68;;
20729;SDS011;10526;50.850;12.928;2023-05-16T02:41:45;24.65;;;13.38;;
20729;SDS011;10526;50.850;12.928;2023-05-16T02:50:53;22.23;;;14.10;;
20729;SDS011;10526;50.850;12.928;2023-05-16T02:55:15;23.33;;;13.57;;
20729;SDS011;10526;50.850;12.928;2023-05-16T02:59:43;23.50;;;13.85;;
20729;SDS011;10526;50.850;12.928;2023-05-16T03:04:06;22.38;;;13.02;;
20729;SDS011;10526;50.850;12.928;2023-05-16T03:08:28;20.33;;;12.98;;
20729;SDS011;10526;50.850;12.928;2023-05-16T03:12:51;19.10;;;13.88;;
20729;SDS011;10526;50.850;12.928;2023-05-16T03:17:15;23.63;;;14.80;;
20729;SDS011;10526;50.850;12.928;2023-05-16T03:21:38;26.05;;;16.17;;
20729;SDS011;10526;50.850;12.928;2023-05-16T03:26:01;24.08;;;15.63;;
20729;SDS011;10526;50.850;12.928;2023-05-16T03:30:23;21.92;;;15.65;;
20729;SDS011;10526;50.850;12.928;2023-05-16T03:34:46;26.05;;;14.30;;
20729;SDS011;10526;50.850;12.928;2023-05-16T03:39:08;20.00;;;13.68;;
20729;SDS011;10526;50.850;12.928;2023-05-16T03:43:32;22.02;;;14.07;;
20729;SDS011;10526;50.850;12.928;2023-05-16T03:47:54;20.10;;;13.45;;
20729;SDS011;10526;50.850;12.928;2023-05-16T03:52:16;22.15;;;13.40;;
20729;SDS011;10526;50.850;12.928;2023-05-16T03:56:38;18.75;;;12.93;;
20729;SDS011;10526;50.850;12.928;2023-05-16T04:01:00;20.23;;;11.90;;
20729;SDS011;10526;50.850;12.928;2023-05-16T04:05:23;18.65;;;11.63;;
20729;SDS011;10526;50.850;12.928;2023-05-16T04:09:45;18.98;;;12.52;;
20729;SDS011;10526;50.850;12.928;2023-05-16T04:14:07;23.67;;;12.40;;
20729;SDS011;10526;50.850;12.928;2023-05-16T04:18:29;18.80;;;12.40;;
20729;SDS011;10526;50.850;12.928;2023-05-16T04:22:52;19.35;;;12.35;;
20729;SDS011;10526;50.850;12.928;2023-05-16T04:27:14;20.40;;;12.63;;
20729;SDS011;10526;50.850;12.928;2023-05-16T04:31:36;23.60;;;12.60;;
20729;SDS011;10526;50.850;12.928;2023-05-16T04:35:58;29.23;;;14.75;;
20729;SDS011;10526;50.850;12.928;2023-05-16T04:40:20;21.30;;;12.95;;
20729;SDS011;10526;50.850;12.928;2023-05-16T04:44:42;26.33;;;13.40;;
20729;SDS011;10526;50.850;12.928;2023-05-16T04:49:05;21.30;;;13.00;;
20729;SDS011;10526;50.850;12.928;2023-05-16T04:53:27;23.38;;;14.60;;
20729;SDS011;10526;50.850;12.928;2023-05-16T04:57:49;22.83;;;15.05;;
20729;SDS011;10526;50.850;12.928;2023-05-16T05:02:10;24.95;;;15.60;;
20729;SDS011;10526;50.850;12.928;2023-05-16T05:06:33;22.48;;;14.02;;
20729;SDS011;10526;50.850;12.928;2023-05-16T05:10:55;26.85;;;16.52;;
20729;SDS011;10526;50.850;12.928;2023-05-16T05:15:17;27.23;;;16.25;;
20729;SDS011;10526;50.850;12.928;2023-05-16T05:19:39;26.38;;;18.10;;
20729;SDS011;10526;50.850;12.928;2023-05-16T05:24:02;29.77;;;18.48;;
20729;SDS011;10526;50.850;12.928;2023-05-16T05:28:24;30.27;;;19.83;;
20729;SDS011;10526;50.850;12.928;2023-05-16T05:32:46;29.48;;;19.50;;
20729;SDS011;10526;50.850;12.928;2023-05-16T05:37:09;31.25;;;20.88;;
20729;SDS011;10526;50.850;12.928;2023-05-16T05:41:31;34.55;;;21.63;;
20729;SDS011;10526;50.850;12.928;2023-05-16T05:45:54;33.05;;;23.02;;
20729;SDS011;10526;50.850;12.928;2023-05-16T05:50:17;33.72;;;21.83;;
20729;SDS011;10526;50.850;12.928;2023-05-16T05:54:39;34.65;;;22.45;;
20729;SDS011;10526;50.850;12.928;2023-05-16T05:59:01;31.48;;;22.23;;
20729;SDS011;10526;50.850;12.928;2023-05-16T06:03:23;35.97;;;24.35;;
20729;SDS011;10526;50.850;12.928;2023-05-16T06:07:46;35.03;;;23.52;;
20729;SDS011;10526;50.850;12.928;2023-05-16T06:12:08;30.88;;;22.30;;
20729;SDS011;10526;50.850;12.928;2023-05-16T06:16:30;35.00;;;25.13;;
20729;SDS011;10526;50.850;12.928;2023-05-16T06:20:52;33.65;;;24.60;;
20729;SDS011;10526;50.850;12.928;2023-05-16T06:25:14;31.27;;;22.58;;
20729;SDS011;10526;50.850;12.928;2023-05-16T06:29:37;35.08;;;23.83;;
20729;SDS011;10526;50.850;12.928;2023-05-16T06:33:59;32.70;;;23.83;;
20729;SDS011;10526;50.850;12.928;2023-05-16T06:38:21;32.70;;;24.48;;
20729;SDS011;10526;50.850;12.928;2023-05-16T06:42:43;34.95;;;24.45;;
20729;SDS011;10526;50.850;12.928;2023-05-16T06:47:05;36.05;;;25.38;;
20729;SDS011;10526;50.850;12.928;2023-05-16T06:51:27;36.65;;;26.55;;
20729;SDS011;10526;50.850;12.928;2023-05-16T06:55:49;34.80;;;24.08;;
20729;SDS011;10526;50.850;12.928;2023-05-16T07:00:12;37.25;;;25.27;;
20729;SDS011;10526;50.850;12.928;2023-05-16T07:04:35;38.70;;;25.92;;
20729;SDS011;10526;50.850;12.928;2023-05-16T07:08:58;36.00;;;23.83;;
20729;SDS011;10526;50.850;12.928;2023-05-16T07:13:20;35.65;;;23.90;;
20729;SDS011;10526;50.850;12.928;2023-05-16T07:17:42;31.48;;;21.38;;
20729;SDS011;10526;50.850;12.928;2023-05-16T07:22:05;30.88;;;20.95;;
20729;SDS011;10526;50.850;12.928;2023-05-16T07:26:27;32.42;;;21.60;;
20729;SDS011;10526;50.850;12.928;2023-05-16T07:30:49;27.88;;;20.25;;
20729;SDS011;10526;50.850;12.928;2023-05-16T07:35:11;27.65;;;18.88;;
20729;SDS011;10526;50.850;12.928;2023-05-16T07:39:33;27.40;;;17.67;;
20729;SDS011;10526;50.850;12.928;2023-05-16T07:43:55;25.23;;;16.77;;
20729;SDS011;10526;50.850;12.928;2023-05-16T07:48:18;28.20;;;18.52;;
20729;SDS011;10526;50.850;12.928;2023-05-16T07:52:40;28.90;;;17.67;;
20729;SDS011;10526;50.850;12.928;2023-05-16T07:57:02;27.45;;;18.42;;
20729;SDS011;10526;50.850;12.928;2023-05-16T08:01:24;24.33;;;17.85;;
20729;SDS011;10526;50.850;12.928;2023-05-16T08:05:47;27.88;;;18.67;;
20729;SDS011;10526;50.850;12.928;2023-05-16T08:10:09;25.27;;;17.38;;
20729;SDS011;10526;50.850;12.928;2023-05-16T08:14:33;23.25;;;17.65;;
20729;SDS011;10526;50.850;12.928;2023-05-16T08:18:57;23.50;;;16.17;;
20729;SDS011;10526;50.850;12.928;2023-05-16T08:23:19;24.95;;;18.55;;
20729;SDS011;10526;50.850;12.928;2023-05-16T08:27:41;31.38;;;19.27;;
20729;SDS011;10526;50.850;12.928;2023-05-16T08:32:07;27.33;;;18.40;;
20729;SDS011;10526;50.850;12.928;2023-05-16T08:36:31;25.70;;;18.13;;
20729;SDS011;10526;50.850;12.928;2023-05-16T08:40:55;26.77;;;17.35;;
20729;SDS011;10526;50.850;12.928;2023-05-16T08:45:18;32.03;;;17.90;;
20729;SDS011;10526;50.850;12.928;2023-05-16T08:49:40;22.42;;;14.73;;
20729;SDS011;10526;50.850;12.928;2023-05-16T08:54:09;27.02;;;16.27;;
20729;SDS011;10526;50.850;12.928;2023-05-16T08:58:33;24.80;;;17.38;;
20729;SDS011;10526;50.850;12.928;2023-05-16T09:02:57;26.92;;;16.90;;
20729;SDS011;10526;50.850;12.928;2023-05-16T09:07:19;28.70;;;16.95;;
20729;SDS011;10526;50.850;12.928;2023-05-16T09:11:41;27.15;;;17.50;;
20729;SDS011;10526;50.850;12.928;2023-05-16T09:16:07;21.85;;;15.02;;
20729;SDS011;10526;50.850;12.928;2023-05-16T09:20:33;25.75;;;15.95;;
20729;SDS011;10526;50.850;12.928;2023-05-16T09:24:56;22.08;;;14.48;;
20729;SDS011;10526;50.850;12.928;2023-05-16T09:29:21;26.98;;;15.35;;
20729;SDS011;10526;50.850;12.928;2023-05-16T09:33:43;25.52;;;16.45;;
20729;SDS011;10526;50.850;12.928;2023-05-16T09:38:05;29.33;;;16.75;;
20729;SDS011;10526;50.850;12.928;2023-05-16T09:42:33;22.10;;;14.75;;
20729;SDS011;10526;50.850;12.928;2023-05-16T09:46:55;23.42;;;14.85;;
20729;SDS011;10526;50.850;12.928;2023-05-16T09:51:20;20.20;;;14.27;;
20729;SDS011;10526;50.850;12.928;2023-05-16T09:55:43;20.30;;;13.10;;
20729;SDS011;10526;50.850;12.928;2023-05-16T10:00:06;18.15;;;12.30;;
20729;SDS011;10526;50.850;12.928;2023-05-16T10:04:35;21.13;;;11.77;;
20729;SDS011;10526;50.850;12.928;2023-05-16T10:08:57;17.27;;;9.77;;
20729;SDS011;10526;50.850;12.928;2023-05-16T10:13:23;16.60;;;8.15;;
20729;SDS011;10526;50.850;12.928;2023-05-16T10:17:51;14.90;;;8.95;;
20729;SDS011;10526;50.850;12.928;2023-05-16T10:22:16;14.32;;;7.22;;
20729;SDS011;10526;50.850;12.928;2023-05-16T10:26:40;13.85;;;7.47;;
20729;SDS011;10526;50.850;12.928;2023-05-16T10:31:02;15.93;;;6.80;;
20729;SDS011;10526;50.850;12.928;2023-05-16T10:35:25;13.27;;;7.35;;
20729;SDS011;10526;50.850;12.928;2023-05-16T10:39:48;13.75;;;6.85;;
20729;SDS011;10526;50.850;12.928;2023-05-16T10:44:12;15.82;;;7.05;;
20729;SDS011;10526;50.850;12.928;2023-05-16T10:48:39;14.15;;;6.40;;
20729;SDS011;10526;50.850;12.928;2023-05-16T10:53:21;14.65;;;5.43;;
20729;SDS011;10526;50.850;12.928;2023-05-16T10:57:55;13.57;;;5.57;;
20729;SDS011;10526;50.850;12.928;2023-05-16T11:06:52;9.93;;;5.05;;
20729;SDS011;10526;50.850;12.928;2023-05-16T11:16:28;10.50;;;4.90;;
20729;SDS011;10526;50.850;12.928;2023-05-16T11:20:50;11.80;;;4.78;;
20729;SDS011;10526;50.850;12.928;2023-05-16T11:25:13;12.88;;;4.63;;
20729;SDS011;10526;50.850;12.928;2023-05-16T11:29:35;10.20;;;4.05;;
20729;SDS011;10526;50.850;12.928;2023-05-16T11:33:57;9.57;;;3.40;;
20729;SDS011;10526;50.850;12.928;2023-05-16T11:38:19;7.60;;;2.67;;
20729;SDS011;10526;50.850;12.928;2023-05-16T11:42:47;9.57;;;2.67;;
20729;SDS011;10526;50.850;12.928;2023-05-16T11:47:10;7.82;;;2.55;;
20729;SDS011;10526;50.850;12.928;2023-05-16T11:51:33;4.50;;;2.40;;
20729;SDS011;10526;50.850;12.928;2023-05-16T11:55:59;8.98;;;2.72;;
20729;SDS011;10526;50.850;12.928;2023-05-16T12:00:22;9.82;;;3.17;;
20729;SDS011;10526;50.850;12.928;2023-05-16T12:04:46;13.65;;;4.10;;
20729;SDS011;10526;50.850;12.928;2023-05-16T12:09:11;8.88;;;3.17;;
20729;SDS011;10526;50.850;12.928;2023-05-16T12:13:38;10.90;;;2.65;;
20729;SDS011;10526;50.850;12.928;2023-05-16T12:18:00;5.63;;;2.20;;
20729;SDS011;10526;50.850;12.928;2023-05-16T12:22:24;3.90;;;2.10;;
20729;SDS011;10526;50.850;12.928;2023-05-16T12:26:46;13.05;;;3.10;;
20729;SDS011;10526;50.850;12.928;2023-05-16T12:31:17;9.50;;;2.85;;
20729;SDS011;10526;50.850;12.928;2023-05-16T12:35:52;4.60;;;2.08;;
20729;SDS011;10526;50.850;12.928;2023-05-16T12:40:14;7.57;;;2.45;;
20729;SDS011;10526;50.850;12.928;2023-05-16T12:44:37;5.18;;;2.42;;
20729;SDS011;10526;50.850;12.928;2023-05-16T12:49:02;8.18;;;2.80;;
20729;SDS011;10526;50.850;12.928;2023-05-16T12:53:28;15.52;;;2.60;;
20729;SDS011;10526;50.850;12.928;2023-05-16T12:58:01;10.05;;;2.53;;
20729;SDS011;10526;50.850;12.928;2023-05-16T13:02:24;9.50;;;2.55;;
20729;SDS011;10526;50.850;12.928;2023-05-16T13:06:46;8.05;;;2.65;;
20729;SDS011;10526;50.850;12.928;2023-05-16T13:11:19;12.93;;;3.00;;
20729;SDS011;10526;50.850;12.928;2023-05-16T13:15:42;10.30;;;2.60;;
20729;SDS011;10526;50.850;12.928;2023-05-16T13:20:05;11.68;;;3.50;;
20729;SDS011;10526;50.850;12.928;2023-05-16T13:24:35;8.90;;;3.45;;
20729;SDS011;10526;50.850;12.928;2023-05-16T13:28:58;10.77;;;2.88;;
20729;SDS011;10526;50.850;12.928;2023-05-16T13:33:22;10.30;;;4.05;;
20729;SDS011;10526;50.850;12.928;2023-05-16T13:37:44;14.65;;;3.92;;
20729;SDS011;10526;50.850;12.928;2023-05-16T13:42:07;16.65;;;4.90;;
20729;SDS011;10526;50.850;12.928;2023-05-16T13:46:29;15.82;;;3.90;;
20729;SDS011;10526;50.850;12.928;2023-05-16T13:50:51;16.30;;;4.18;;
20729;SDS011;10526;50.850;12.928;2023-05-16T13:55:14;10.25;;;3.33;;
20729;SDS011;10526;50.850;12.928;2023-05-16T13:59:37;14.32;;;3.85;;
20729;SDS011;10526;50.850;12.928;2023-05-16T14:04:19;10.77;;;3.50;;
20729;SDS011;10526;50.850;12.928;2023-05-16T14:08:42;16.10;;;3.78;;
20729;SDS011;10526;50.850;12.928;2023-05-16T14:13:04;14.48;;;3.47;;
20729;SDS011;10526;50.850;12.928;2023-05-16T14:17:26;11.70;;;3.75;;
20729;SDS011;10526;50.850;12.928;2023-05-16T14:21:48;15.15;;;3.53;;
20729;SDS011;10526;50.850;12.928;2023-05-16T14:26:13;12.70;;;4.07;;
20729;SDS011;10526;50.850;12.928;2023-05-16T14:30:35;10.32;;;3.30;;
20729;SDS011;10526;50.850;12.928;2023-05-16T14:34:57;10.60;;;3.03;;
20729;SDS011;10526;50.850;12.928;2023-05-16T14:39:19;12.55;;;3.53;;
20729;SDS011;10526;50.850;12.928;2023-05-16T14:43:43;12.20;;;3.42;;
20729;SDS011;10526;50.850;12.928;2023-05-16T14:48:06;16.63;;;3.33;;
20729;SDS011;10526;50.850;12.928;2023-05-16T14:52:28;9.10;;;2.95;;
20729;SDS011;10526;50.850;12.928;2023-05-16T14:56:51;11.20;;;2.67;;
20729;SDS011;10526;50.850;12.928;2023-05-16T15:01:13;14.07;;;2.60;;
20729;SDS011;10526;50.850;12.928;2023-05-16T15:05:37;17.08;;;3.30;;
20729;SDS011;10526;50.850;12.928;2023-05-16T15:09:59;13.45;;;2.83;;
20729;SDS011;10526;50.850;12.928;2023-05-16T15:14:22;10.40;;;2.70;;
20729;SDS011;10526;50.850;12.928;2023-05-16T15:18:44;12.65;;;2.70;;
20729;SDS011;10526;50.850;12.928;2023-05-16T15:23:06;19.23;;;3.15;;
20729;SDS011;10526;50.850;12.928;2023-05-16T15:27:28;15.18;;;3.33;;
20729;SDS011;10526;50.850;12.928;2023-05-16T15:31:50;13.55;;;3.20;;
20729;SDS011;10526;50.850;12.928;2023-05-16T15:36:12;17.42;;;4.20;;
20729;SDS011;10526;50.850;12.928;2023-05-16T15:40:35;14.57;;;2.67;;
20729;SDS011;10526;50.850;12.928;2023-05-16T15:44:57;15.45;;;2.83;;
20729;SDS011;10526;50.850;12.928;2023-05-16T15:49:19;16.75;;;3.20;;
20729;SDS011;10526;50.850;12.928;2023-05-16T15:53:41;12.30;;;2.10;;
20729;SDS011;10526;50.850;12.928;2023-05-16T15:58:05;17.10;;;3.25;;
20729;SDS011;10526;50.850;12.928;2023-05-16T16:02:27;11.95;;;3.08;;
20729;SDS011;10526;50.850;12.928;2023-05-16T16:06:49;16.83;;;3.60;;
20729;SDS011;10526;50.850;12.928;2023-05-16T16:11:11;14.00;;;3.05;;
20729;SDS011;10526;50.850;12.928;2023-05-16T16:15:33;12.57;;;2.63;;
20729;SDS011;10526;50.850;12.928;2023-05-16T16:19:56;15.55;;;3.28;;
20729;SDS011;10526;50.850;12.928;2023-05-16T16:24:19;12.50;;;2.50;;
20729;SDS011;10526;50.850;12.928;2023-05-16T16:28:41;11.57;;;2.25;;
20729;SDS011;10526;50.850;12.928;2023-05-16T16:33:03;7.15;;;1.98;;
20729;SDS011;10526;50.850;12.928;2023-05-16T16:37:25;10.80;;;2.75;;
20729;SDS011;10526;50.850;12.928;2023-05-16T16:41:48;15.10;;;3.53;;
20729;SDS011;10526;50.850;12.928;2023-05-16T16:46:10;12.07;;;2.10;;
20729;SDS011;10526;50.850;12.928;2023-05-16T16:50:33;10.95;;;2.53;;
20729;SDS011;10526;50.850;12.928;2023-05-16T16:54:55;8.10;;;2.00;;
20729;SDS011;10526;50.850;12.928;2023-05-16T16:59:17;16.20;;;2.10;;
20729;SDS011;10526;50.850;12.928;2023-05-16T17:03:40;13.40;;;3.78;;
20729;SDS011;10526;50.850;12.928;2023-05-16T17:08:02;10.18;;;2.20;;
20729;SDS011;10526;50.850;12.928;2023-05-16T17:12:25;12.88;;;3.30;;
20729;SDS011;10526;50.850;12.928;2023-05-16T17:16:49;9.93;;;1.95;;
20729;SDS011;10526;50.850;12.928;2023-05-16T17:21:11;9.70;;;2.00;;
20729;SDS011;10526;50.850;12.928;2023-05-16T17:25:33;12.38;;;2.17;;
20729;SDS011;10526;50.850;12.928;2023-05-16T17:29:56;11.80;;;2.20;;
20729;SDS011;10526;50.850;12.928;2023-05-16T17:34:19;8.95;;;2.13;;
20729;SDS011;10526;50.850;12.928;2023-05-16T17:38:41;8.15;;;1.88;;
20729;SDS011;10526;50.850;12.928;2023-05-16T17:43:03;11.90;;;2.50;;
20729;SDS011;10526;50.850;12.928;2023-05-16T17:47:25;8.07;;;1.98;;
20729;SDS011;10526;50.850;12.928;2023-05-16T17:51:49;8.27;;;2.10;;
20729;SDS011;10526;50.850;12.928;2023-05-16T17:56:14;9.15;;;2.58;;
20729;SDS011;10526;50.850;12.928;2023-05-16T18:00:36;5.65;;;1.83;;
20729;SDS011;10526;50.850;12.928;2023-05-16T18:04:58;15.80;;;2.40;;
20729;SDS011;10526;50.850;12.928;2023-05-16T18:09:21;9.23;;;2.22;;
20729;SDS011;10526;50.850;12.928;2023-05-16T18:13:43;12.65;;;2.42;;
20729;SDS011;10526;50.850;12.928;2023-05-16T18:18:06;12.63;;;2.58;;
20729;SDS011;10526;50.850;12.928;2023-05-16T18:22:29;10.88;;;2.65;;
20729;SDS011;10526;50.850;12.928;2023-05-16T18:26:51;10.65;;;2.63;;
20729;SDS011;10526;50.850;12.928;2023-05-16T18:31:14;14.43;;;2.92;;
20729;SDS011;10526;50.850;12.928;2023-05-16T18:35:36;13.10;;;2.50;;
20729;SDS011;10526;50.850;12.928;2023-05-16T18:39:58;7.28;;;2.10;;
20729;SDS011;10526;50.850;12.928;2023-05-16T18:44:21;14.20;;;2.67;;
20729;SDS011;10526;50.850;12.928;2023-05-16T18:48:43;18.60;;;4.90;;
20729;SDS011;10526;50.850;12.928;2023-05-16T18:53:05;14.73;;;3.60;;
20729;SDS011;10526;50.850;12.928;2023-05-16T18:57:28;16.83;;;3.00;;
20729;SDS011;10526;50.850;12.928;2023-05-16T19:01:50;11.98;;;2.53;;
20729;SDS011;10526;50.850;12.928;2023-05-16T19:06:12;15.65;;;3.90;;
20729;SDS011;10526;50.850;12.928;2023-05-16T19:10:35;13.60;;;4.63;;
20729;SDS011;10526;50.850;12.928;2023-05-16T19:14:58;14.30;;;4.40;;
20729;SDS011;10526;50.850;12.928;2023-05-16T19:19:24;14.65;;;4.97;;
20729;SDS011;10526;50.850;12.928;2023-05-16T19:23:49;20.50;;;4.22;;
20729;SDS011;10526;50.850;12.928;2023-05-16T19:28:12;11.05;;;3.67;;
20729;SDS011;10526;50.850;12.928;2023-05-16T19:32:35;15.95;;;3.67;;
20729;SDS011;10526;50.850;12.928;2023-05-16T19:36:58;10.80;;;2.90;;
20729;SDS011;10526;50.850;12.928;2023-05-16T19:41:22;13.43;;;3.40;;
20729;SDS011;10526;50.850;12.928;2023-05-16T19:45:45;14.23;;;2.65;;
20729;SDS011;10526;50.850;12.928;2023-05-16T19:50:07;10.73;;;3.05;;
20729;SDS011;10526;50.850;12.928;2023-05-16T19:54:30;15.70;;;2.97;;
20729;SDS011;10526;50.850;12.928;2023-05-16T19:58:52;11.00;;;2.78;;
20729;SDS011;10526;50.850;12.928;2023-05-16T20:03:14;12.43;;;2.92;;
20729;SDS011;10526;50.850;12.928;2023-05-16T20:07:36;11.68;;;2.80;;
20729;SDS011;10526;50.850;12.928;2023-05-16T20:12:01;44.63;;;19.88;;
20729;SDS011;10526;50.850;12.928;2023-05-16T20:16:23;17.95;;;4.07;;
20729;SDS011;10526;50.850;12.928;2023-05-16T20:20:47;15.23;;;3.53;;
20729;SDS011;10526;50.850;12.928;2023-05-16T20:25:09;13.60;;;3.35;;
20729;SDS011;10526;50.850;12.928;2023-05-16T20:29:32;10.55;;;3.22;;
20729;SDS011;10526;50.850;12.928;2023-05-16T20:33:54;8.98;;;3.30;;
20729;SDS011;10526;50.850;12.928;2023-05-16T20:38:17;10.93;;;3.45;;
20729;SDS011;10526;50.850;12.928;2023-05-16T20:42:39;14.15;;;3.53;;
20729;SDS011;10526;50.850;12.928;2023-05-16T20:47:01;10.85;;;3.88;;
20729;SDS011;10526;50.850;12.928;2023-05-16T20:51:24;15.15;;;3.67;;
20729;SDS011;10526;50.850;12.928;2023-05-16T20:55:46;9.50;;;3.08;;
20729;SDS011;10526;50.850;12.928;2023-05-16T21:00:08;12.13;;;3.60;;
20729;SDS011;10526;50.850;12.928;2023-05-16T21:04:31;11.65;;;3.50;;
20729;SDS011;10526;50.850;12.928;2023-05-16T21:08:53;13.00;;;3.10;;
20729;SDS011;10526;50.850;12.928;2023-05-16T21:13:16;9.52;;;2.80;;
20729;SDS011;10526;50.850;12.928;2023-05-16T21:17:39;13.07;;;3.08;;
20729;SDS011;10526;50.850;12.928;2023-05-16T21:22:02;12.88;;;3.00;;
20729;SDS011;10526;50.850;12.928;2023-05-16T21:26:25;11.27;;;2.60;;
20729;SDS011;10526;50.850;12.928;2023-05-16T21:30:47;14.05;;;2.72;;
20729;SDS011;10526;50.850;12.928;2023-05-16T21:35:09;8.55;;;2.50;;
20729;SDS011;10526;50.850;12.928;2023-05-16T21:39:31;12.35;;;4.78;;
20729;SDS011;10526;50.850;12.928;2023-05-16T21:43:54;11.90;;;2.83;;
20729;SDS011;10526;50.850;12.928;2023-05-16T21:48:16;7.82;;;2.30;;
20729;SDS011;10526;50.850;12.928;2023-05-16T21:52:41;9.32;;;2.42;;
20729;SDS011;10526;50.850;12.928;2023-05-16T21:57:03;7.78;;;2.88;;
20729;SDS011;10526;50.850;12.928;2023-05-16T22:01:26;9.73;;;2.78;;
20729;SDS011;10526;50.850;12.928;2023-05-16T22:05:49;13.45;;;3.40;;
20729;SDS011;10526;50.850;12.928;2023-05-16T22:10:11;8.27;;;2.45;;
20729;SDS011;10526;50.850;12.928;2023-05-16T22:14:35;14.38;;;2.65;;
20729;SDS011;10526;50.850;12.928;2023-05-16T22:18:57;7.72;;;2.47;;
20729;SDS011;10526;50.850;12.928;2023-05-16T22:23:20;6.20;;;2.10;;
20729;SDS011;10526;50.850;12.928;2023-05-16T22:27:42;7.47;;;2.33;;
20729;SDS011;10526;50.850;12.928;2023-05-16T22:32:05;15.10;;;2.13;;
20729;SDS011;10526;50.850;12.928;2023-05-16T22:36:31;9.75;;;1.63;;
20729;SDS011;10526;50.850;12.928;2023-05-16T22:40:52;11.10;;;2.47;;
20729;SDS011;10526;50.850;12.928;2023-05-16T22:45:15;9.40;;;1.70;;
20729;SDS011;10526;50.850;12.928;2023-05-16T22:49:38;7.43;;;2.10;;
20729;SDS011;10526;50.850;12.928;2023-05-16T22:54:00;7.90;;;1.95;;
20729;SDS011;10526;50.850;12.928;2023-05-16T22:58:22;8.63;;;2.05;;
20729;SDS011;10526;50.850;12.928;2023-05-16T23:02:44;9.75;;;2.10;;
20729;SDS011;10526;50.850;12.928;2023-05-16T23:07:06;6.88;;;1.80;;
20729;SDS011;10526;50.850;12.928;2023-05-16T23:11:28;6.43;;;1.67;;
20729;SDS011;10526;50.850;12.928;2023-05-16T23:15:51;7.45;;;2.13;;
20729;SDS011;10526;50.850;12.928;2023-05-16T23:20:14;10.52;;;2.20;;
20729;SDS011;10526;50.850;12.928;2023-05-16T23:24:36;9.45;;;2.88;;
20729;SDS011;10526;50.850;12.928;2023-05-16T23:28:58;9.02;;;2.53;;
20729;SDS011;10526;50.850;12.928;2023-05-16T23:33:20;7.68;;;2.70;;
20729;SDS011;10526;50.850;12.928;2023-05-16T23:37:42;7.50;;;2.75;;
20729;SDS011;10526;50.850;12.928;2023-05-16T23:42:04;10.38;;;2.88;;
20729;SDS011;10526;50.850;12.928;2023-05-16T23:46:26;10.95;;;3.15;;
20729;SDS011;10526;50.850;12.928;2023-05-16T23:50:48;8.32;;;2.70;;
20729;SDS011;10526;50.850;12.928;2023-05-16T23:55:11;8.80;;;3.05;;
20729;SDS011;10526;50.850;12.928;2023-05-16T23:59:34;13.07;;;3.17;;
